createdAt,value
2019-02-08T00:00:43.244Z,0
2019-02-08T00:01:44.374Z,0
2019-02-08T00:02:44.693Z,0
2019-02-08T00:03:45.718Z,0
2019-02-08T00:04:47.809Z,0
2019-02-08T00:05:47.383Z,0
2019-02-08T00:06:48.281Z,0
2019-02-08T00:07:49.423Z,0
2019-02-08T00:08:49.635Z,0
2019-02-08T00:09:50.529Z,0
2019-02-08T00:10:51.403Z,0
2019-02-08T00:11:52.650Z,0
2019-02-08T00:12:53.384Z,0
2019-02-08T00:13:53.807Z,0
2019-02-08T00:14:55.241Z,0
2019-02-08T00:15:55.937Z,0
2019-02-08T00:16:56.926Z,0
2019-02-08T00:17:57.037Z,0
2019-02-08T00:18:59.634Z,0
2019-02-08T00:20:00.407Z,0
2019-02-08T00:21:01.905Z,0
2019-02-08T00:22:03.628Z,0
2019-02-08T00:23:02.584Z,0
2019-02-08T00:24:03.872Z,0
2019-02-08T00:25:05.431Z,0
2019-02-08T00:26:06.666Z,0
2019-02-08T00:27:08.232Z,0
2019-02-08T00:28:07.817Z,0
2019-02-08T00:29:09.274Z,0
2019-02-08T00:30:11.198Z,0
2019-02-08T00:31:11.226Z,0
2019-02-08T00:32:12.388Z,0
2019-02-08T00:33:13.640Z,0
2019-02-08T00:34:13.781Z,0
2019-02-08T00:35:15.479Z,0
2019-02-08T00:36:15.456Z,0
2019-02-08T00:37:15.600Z,0
2019-02-08T00:38:17.016Z,0
2019-02-08T00:39:19.112Z,0
2019-02-08T00:40:18.776Z,0
2019-02-08T00:41:19.751Z,0
2019-02-08T00:42:19.743Z,0
2019-02-08T00:43:20.445Z,0
2019-02-08T00:44:21.142Z,0
2019-02-08T00:45:21.587Z,0
2019-02-08T00:46:22.020Z,0
2019-02-08T00:47:24.168Z,0
2019-02-08T00:48:23.785Z,0
2019-02-08T00:49:24.810Z,0
2019-02-08T00:50:25.505Z,0
2019-02-08T00:51:25.773Z,0
2019-02-08T00:52:26.466Z,0
2019-02-08T00:53:39.922Z,0
2019-02-08T00:54:40.762Z,0
2019-02-08T00:55:40.899Z,0
2019-02-08T00:56:43.091Z,0
2019-02-08T00:57:43.071Z,0
2019-02-08T00:58:43.497Z,0
2019-02-08T00:59:44.629Z,0
2019-02-08T01:00:45.047Z,0
2019-02-08T01:01:46.478Z,0
2019-02-08T01:02:47.185Z,0
2019-02-08T01:03:48.338Z,0
2019-02-08T01:04:49.847Z,0
2019-02-08T01:05:51.257Z,0
2019-02-08T01:06:51.677Z,0
2019-02-08T01:07:51.120Z,0
2019-02-08T01:08:51.828Z,0
2019-02-08T01:09:52.803Z,0
2019-02-08T01:10:55.057Z,0
2019-02-08T01:11:54.801Z,0
2019-02-08T01:12:55.233Z,0
2019-02-08T01:13:56.172Z,0
2019-02-08T01:14:57.148Z,0
2019-02-08T01:15:57.560Z,0
2019-02-08T01:16:58.982Z,0
2019-02-08T01:17:59.405Z,0
2019-02-08T01:19:00.172Z,0
2019-02-08T01:20:00.693Z,0
2019-02-08T01:21:01.112Z,0
2019-02-08T01:22:03.645Z,0
2019-02-08T01:23:03.522Z,0
2019-02-08T01:24:04.226Z,0
2019-02-08T01:25:05.918Z,0
2019-02-08T01:26:05.894Z,0
2019-02-08T01:27:05.861Z,0
2019-02-08T01:28:06.551Z,0
2019-02-08T01:29:07.239Z,0
2019-02-08T01:30:07.933Z,0
2019-02-08T01:31:08.108Z,0
2019-02-08T01:32:09.079Z,0
2019-02-08T01:33:10.043Z,0
2019-02-08T01:34:11.345Z,0
2019-02-08T01:35:11.210Z,0
2019-02-08T01:36:12.895Z,0
2019-02-08T01:37:13.586Z,0
2019-02-08T01:38:13.723Z,0
2019-02-08T01:39:15.179Z,0
2019-02-08T01:40:16.422Z,0
2019-02-08T01:41:16.561Z,0
2019-02-08T01:42:17.703Z,0
2019-02-08T01:43:19.397Z,0
2019-02-08T01:44:20.133Z,0
2019-02-08T01:45:20.420Z,0
2019-02-08T01:46:21.834Z,0
2019-02-08T01:47:22.805Z,0
2019-02-08T01:48:23.223Z,0
2019-02-08T01:49:24.467Z,0
2019-02-08T01:50:25.159Z,0
2019-02-08T01:51:25.583Z,0
2019-02-08T01:52:26.559Z,0
2019-02-08T01:53:26.526Z,0
2019-02-08T01:54:26.774Z,0
2019-02-08T01:55:27.894Z,0
2019-02-08T01:56:29.309Z,0
2019-02-08T01:57:30.290Z,0
2019-02-08T01:58:30.429Z,0
2019-02-08T01:59:31.121Z,0
2019-02-08T02:00:32.372Z,0
2019-02-08T02:01:33.344Z,0
2019-02-08T02:02:34.328Z,0
2019-02-08T02:03:35.025Z,0
2019-02-08T02:04:36.006Z,0
2019-02-08T02:05:37.170Z,0
2019-02-08T02:06:37.199Z,0
2019-02-08T02:07:37.904Z,0
2019-02-08T02:08:37.598Z,0
2019-02-08T02:09:39.011Z,0
2019-02-08T02:10:39.707Z,0
2019-02-08T02:11:40.398Z,0
2019-02-08T02:12:40.534Z,0
2019-02-08T02:13:42.228Z,0
2019-02-08T02:14:42.926Z,0
2019-02-08T02:15:44.062Z,0
2019-02-08T02:16:45.039Z,0
2019-02-08T02:17:45.735Z,0
2019-02-08T02:18:46.150Z,0
2019-02-08T02:19:46.569Z,0
2019-02-08T02:20:47.975Z,0
2019-02-08T02:21:49.224Z,0
2019-02-08T02:22:49.681Z,0
2019-02-08T02:24:04.408Z,0
2019-02-08T02:25:05.384Z,0
2019-02-08T02:26:06.648Z,0
2019-02-08T02:27:07.647Z,0
2019-02-08T02:28:07.631Z,0
2019-02-08T02:29:07.769Z,0
2019-02-08T02:30:09.744Z,0
2019-02-08T02:31:10.300Z,0
2019-02-08T02:32:10.854Z,0
2019-02-08T02:33:11.680Z,0
2019-02-08T02:34:12.657Z,0
2019-02-08T02:35:13.641Z,0
2019-02-08T02:36:14.894Z,0
2019-02-08T02:37:14.606Z,0
2019-02-08T02:38:16.165Z,0
2019-02-08T02:39:16.506Z,0
2019-02-08T02:40:17.492Z,0
2019-02-08T02:41:17.752Z,0
2019-02-08T02:42:18.729Z,0
2019-02-08T02:43:19.260Z,0
2019-02-08T02:44:19.676Z,0
2019-02-08T02:45:20.344Z,0
2019-02-08T02:46:21.925Z,0
2019-02-08T02:47:22.204Z,0
2019-02-08T02:48:22.624Z,0
2019-02-08T02:49:22.781Z,0
2019-02-08T02:50:23.766Z,0
2019-02-08T02:51:24.732Z,0
2019-02-08T02:52:25.553Z,0
2019-02-08T02:53:26.121Z,0
2019-02-08T02:54:25.837Z,0
2019-02-08T02:55:27.580Z,0
2019-02-08T02:56:28.566Z,0
2019-02-08T02:57:29.534Z,0
2019-02-08T02:58:31.077Z,0
2019-02-08T02:59:31.377Z,0
2019-02-08T03:00:32.095Z,0
2019-02-08T03:01:32.508Z,0
2019-02-08T03:02:33.762Z,0
2019-02-08T03:03:34.191Z,0
2019-02-08T03:04:36.007Z,0
2019-02-08T03:05:35.862Z,0
2019-02-08T03:06:36.841Z,0
2019-02-08T03:07:37.531Z,0
2019-02-08T03:08:40.963Z,0
2019-02-08T03:09:39.818Z,0
2019-02-08T03:10:39.788Z,0
2019-02-08T03:11:40.356Z,0
2019-02-08T03:12:41.051Z,0
2019-02-08T03:13:41.744Z,0
2019-02-08T03:14:42.448Z,0
2019-02-08T03:15:43.939Z,0
2019-02-08T03:16:44.644Z,0
2019-02-08T03:17:45.129Z,0
2019-02-08T03:18:46.127Z,0
2019-02-08T03:19:47.555Z,0
2019-02-08T03:20:48.535Z,0
2019-02-08T03:21:49.526Z,0
2019-02-08T03:22:50.801Z,0
2019-02-08T03:23:51.058Z,0
2019-02-08T03:24:51.753Z,0
2019-02-08T03:25:52.136Z,0
2019-02-08T03:26:52.858Z,0
2019-02-08T03:27:53.553Z,0
2019-02-08T03:28:54.244Z,0
2019-02-08T03:29:55.814Z,0
2019-02-08T03:30:57.663Z,0
2019-02-08T03:31:58.371Z,0
2019-02-08T03:32:58.862Z,0
2019-02-08T03:33:58.130Z,0
2019-02-08T03:34:58.547Z,0
2019-02-08T03:36:00.223Z,0
2019-02-08T03:37:00.659Z,0
2019-02-08T03:38:01.365Z,0
2019-02-08T03:39:01.783Z,0
2019-02-08T03:40:02.344Z,0
2019-02-08T03:41:03.343Z,0
2019-02-08T03:42:03.327Z,0
2019-02-08T03:43:04.750Z,0
2019-02-08T03:44:05.442Z,0
2019-02-08T03:45:06.833Z,0
2019-02-08T03:46:07.149Z,0
2019-02-08T03:47:07.684Z,0
2019-02-08T03:48:08.408Z,0
2019-02-08T03:49:09.388Z,0
2019-02-08T03:50:10.927Z,0
2019-02-08T03:51:10.905Z,0
2019-02-08T03:52:11.156Z,0
2019-02-08T03:53:11.855Z,0
2019-02-08T03:54:12.543Z,0
2019-02-08T03:54:24.298Z,0
2019-02-08T03:55:25.052Z,0
2019-02-08T03:56:26.603Z,0
2019-02-08T03:57:27.024Z,0
2019-02-08T03:58:27.160Z,0
2019-02-08T03:59:28.420Z,0
2019-02-08T04:00:29.425Z,0
2019-02-08T04:01:29.711Z,4
2019-02-08T04:02:30.692Z,0
2019-02-08T04:03:31.386Z,0
2019-02-08T04:04:31.662Z,0
2019-02-08T04:05:33.641Z,0
2019-02-08T04:06:33.337Z,0
2019-02-08T04:07:34.309Z,0
2019-02-08T04:08:34.280Z,0
2019-02-08T04:09:35.563Z,0
2019-02-08T04:10:35.849Z,0
2019-02-08T04:11:36.820Z,0
2019-02-08T04:12:37.792Z,0
2019-02-08T04:13:39.038Z,0
2019-02-08T04:14:39.011Z,0
2019-02-08T04:15:40.285Z,0
2019-02-08T04:16:40.979Z,0
2019-02-08T04:17:41.396Z,0
2019-02-08T04:18:44.240Z,0
2019-02-08T04:19:42.666Z,0
2019-02-08T04:20:44.933Z,0
2019-02-08T04:21:45.191Z,0
2019-02-08T04:22:46.170Z,0
2019-02-08T04:23:46.876Z,0
2019-02-08T04:24:48.289Z,0
2019-02-08T04:25:49.277Z,0
2019-02-08T04:26:50.249Z,0
2019-02-08T04:27:50.674Z,0
2019-02-08T04:28:52.096Z,0
2019-02-08T04:29:52.804Z,0
2019-02-08T04:30:54.779Z,0
2019-02-08T04:31:55.192Z,0
2019-02-08T04:32:56.750Z,0
2019-02-08T04:33:58.002Z,0
2019-02-08T04:34:57.970Z,0
2019-02-08T04:35:59.686Z,0
2019-02-08T04:37:00.239Z,0
2019-02-08T04:38:00.942Z,0
2019-02-08T04:39:02.203Z,0
2019-02-08T04:40:02.914Z,0
2019-02-08T04:41:04.162Z,0
2019-02-08T04:42:04.865Z,0
2019-02-08T04:43:05.555Z,0
2019-02-08T04:44:06.257Z,0
2019-02-08T04:45:06.978Z,0
2019-02-08T04:46:08.490Z,0
2019-02-08T04:47:08.903Z,0
2019-02-08T04:48:10.319Z,0
2019-02-08T04:49:10.768Z,0
2019-02-08T04:50:12.039Z,0
2019-02-08T04:51:12.011Z,0
2019-02-08T04:52:12.992Z,0
2019-02-08T04:53:13.262Z,0
2019-02-08T04:54:13.717Z,0
2019-02-08T04:55:15.695Z,0
2019-02-08T04:56:16.817Z,0
2019-02-08T04:57:17.784Z,0
2019-02-08T04:58:17.237Z,0
2019-02-08T04:59:17.926Z,0
2019-02-08T05:01:19.475Z,0
2019-02-08T05:02:20.436Z,0
2019-02-08T05:03:21.683Z,0
2019-02-08T05:04:22.650Z,0
2019-02-08T05:05:22.630Z,0
2019-02-08T05:06:24.022Z,0
2019-02-08T05:07:24.706Z,0
2019-02-08T05:08:25.129Z,0
2019-02-08T05:09:26.992Z,0
2019-02-08T05:10:26.679Z,0
2019-02-08T05:11:28.198Z,0
2019-02-08T05:12:29.175Z,0
2019-02-08T05:13:29.165Z,0
2019-02-08T05:14:29.574Z,0
2019-02-08T05:15:30.848Z,0
2019-02-08T05:16:31.442Z,0
2019-02-08T05:17:31.587Z,0
2019-02-08T05:18:32.847Z,0
2019-02-08T05:19:33.536Z,0
2019-02-08T05:20:34.498Z,0
2019-02-08T05:21:34.920Z,0
2019-02-08T05:22:35.897Z,0
2019-02-08T05:23:36.590Z,0
2019-02-08T05:24:37.552Z,0
2019-02-08T05:24:50.589Z,0
2019-02-08T05:25:51.318Z,0
2019-02-08T05:26:51.727Z,0
2019-02-08T05:27:54.517Z,0
2019-02-08T05:28:55.511Z,0
2019-02-08T05:29:56.470Z,0
2019-02-08T05:30:57.166Z,0
2019-02-08T05:31:57.588Z,0
2019-02-08T05:32:59.113Z,0
2019-02-08T05:33:59.077Z,0
2019-02-08T05:35:00.222Z,0
2019-02-08T05:36:00.396Z,0
2019-02-08T05:37:01.912Z,0
2019-02-08T05:38:02.597Z,0
2019-02-08T05:39:02.563Z,0
2019-02-08T05:40:03.529Z,0
2019-02-08T05:41:04.041Z,0
2019-02-08T05:42:04.737Z,0
2019-02-08T05:43:06.273Z,0
2019-02-08T05:44:06.253Z,0
2019-02-08T05:45:07.492Z,0
2019-02-08T05:46:07.341Z,0
2019-02-08T05:47:08.582Z,0
2019-02-08T05:48:08.985Z,0
2019-02-08T05:49:10.500Z,0
2019-02-08T05:50:10.191Z,0
2019-02-08T05:51:10.612Z,0
2019-02-08T05:52:11.857Z,0
2019-02-08T05:53:12.542Z,0
2019-02-08T05:54:12.968Z,0
2019-02-08T05:55:13.651Z,0
2019-02-08T05:56:15.034Z,0
2019-02-08T05:57:15.164Z,0
2019-02-08T05:58:16.296Z,0
2019-02-08T05:59:16.745Z,4
2019-02-08T06:00:18.432Z,4
2019-02-08T06:01:18.116Z,4
2019-02-08T06:02:20.117Z,4
2019-02-08T06:03:20.122Z,0
2019-02-08T06:04:20.836Z,4
2019-02-08T06:05:21.521Z,4
2019-02-08T06:06:21.645Z,8
2019-02-08T06:07:22.899Z,4
2019-02-08T06:08:24.141Z,8
2019-02-08T06:09:24.121Z,8
2019-02-08T06:10:24.363Z,8
2019-02-08T06:11:25.325Z,12
2019-02-08T06:12:26.021Z,16
2019-02-08T06:13:27.279Z,16
2019-02-08T06:14:27.254Z,20
2019-02-08T06:15:27.510Z,24
2019-02-08T06:16:28.916Z,28
2019-02-08T06:17:29.443Z,32
2019-02-08T06:18:30.157Z,40
2019-02-08T06:19:30.579Z,48
2019-02-08T06:20:30.995Z,52
2019-02-08T06:21:31.400Z,60
2019-02-08T06:22:32.087Z,72
2019-02-08T06:23:33.053Z,84
2019-02-08T06:24:34.018Z,96
2019-02-08T06:25:34.725Z,108
2019-02-08T06:26:35.256Z,120
2019-02-08T06:27:35.948Z,136
2019-02-08T06:28:36.196Z,152
2019-02-08T06:29:37.169Z,176
2019-02-08T06:30:37.581Z,196
2019-02-08T06:31:38.278Z,216
2019-02-08T06:32:39.262Z,240
2019-02-08T06:33:39.946Z,268
2019-02-08T06:34:43.575Z,296
2019-02-08T06:35:41.592Z,324
2019-02-08T06:36:42.415Z,356
2019-02-08T06:37:46.548Z,388
2019-02-08T06:38:48.073Z,428
2019-02-08T06:39:47.482Z,460
2019-02-08T06:40:49.166Z,504
2019-02-08T06:41:49.854Z,540
2019-02-08T06:42:49.837Z,588
2019-02-08T06:43:50.971Z,636
2019-02-08T06:44:52.220Z,680
2019-02-08T06:45:52.906Z,728
2019-02-08T06:46:54.306Z,772
2019-02-08T06:47:54.866Z,812
2019-02-08T06:48:55.581Z,856
2019-02-08T06:49:56.544Z,896
2019-02-08T06:50:57.528Z,940
2019-02-08T06:51:58.252Z,984
2019-02-08T06:52:58.690Z,1028
2019-02-08T06:53:59.654Z,1076
2019-02-08T06:55:00.726Z,1180
2019-02-08T06:56:01.242Z,2620
2019-02-08T06:57:02.405Z,3892
2019-02-08T06:58:03.099Z,2624
2019-02-08T06:59:03.567Z,2000
2019-02-08T07:00:04.532Z,2920
2019-02-08T07:01:04.775Z,3568
2019-02-08T07:02:05.186Z,2676
2019-02-08T07:03:06.810Z,1792
2019-02-08T07:04:08.558Z,1864
2019-02-08T07:05:09.125Z,1924
2019-02-08T07:06:10.095Z,2536
2019-02-08T07:07:10.659Z,3156
2019-02-08T07:08:12.041Z,3032
2019-02-08T07:09:12.180Z,3136
2019-02-08T07:10:13.596Z,3224
2019-02-08T07:11:14.565Z,3396
2019-02-08T07:12:15.298Z,2692
2019-02-08T07:13:15.835Z,2500
2019-02-08T07:14:15.981Z,3180
2019-02-08T07:15:17.173Z,2884
2019-02-08T07:16:17.863Z,2660
2019-02-08T07:17:19.250Z,2928
2019-02-08T07:18:19.703Z,3392
2019-02-08T07:19:20.369Z,4136
2019-02-08T07:20:21.357Z,3432
2019-02-08T07:21:22.103Z,2944
2019-02-08T07:22:22.255Z,3048
2019-02-08T07:23:23.677Z,3264
2019-02-08T07:24:24.648Z,5956
2019-02-08T07:25:25.125Z,8232
2019-02-08T07:26:25.598Z,10348
2019-02-08T07:27:26.252Z,13232
2019-02-08T07:28:28.429Z,15488
2019-02-08T07:29:29.273Z,16736
2019-02-08T07:30:29.995Z,15648
2019-02-08T07:31:30.411Z,15456
2019-02-08T07:32:31.105Z,17440
2019-02-08T07:33:31.573Z,21728
2019-02-08T07:34:32.613Z,18816
2019-02-08T07:35:34.078Z,20320
2019-02-08T07:36:34.772Z,25504
2019-02-08T07:37:35.810Z,12332
2019-02-08T07:38:36.219Z,5668
2019-02-08T07:39:37.276Z,5872
2019-02-08T07:40:37.969Z,6044
2019-02-08T07:41:39.216Z,7400
2019-02-08T07:42:40.186Z,22848
2019-02-08T07:43:40.943Z,33312
2019-02-08T07:44:41.422Z,38848
2019-02-08T07:45:41.973Z,44576
2019-02-08T07:46:42.393Z,49216
2019-02-08T07:47:43.238Z,49536
2019-02-08T07:48:43.973Z,45056
2019-02-08T07:49:44.768Z,41760
2019-02-08T07:50:45.629Z,42400
2019-02-08T07:51:46.085Z,33984
2019-02-08T07:52:48.973Z,33984
2019-02-08T07:53:47.773Z,48704
2019-02-08T07:54:48.292Z,55424
2019-02-08T07:55:48.722Z,43232
2019-02-08T07:56:50.464Z,23872
2019-02-08T07:57:51.130Z,17024
2019-02-08T07:58:51.746Z,21280
2019-02-08T07:59:53.052Z,30912
2019-02-08T08:00:53.753Z,45696
2019-02-08T08:01:53.904Z,28192
2019-02-08T08:02:55.604Z,21344
2019-02-08T08:04:09.378Z,21280
2019-02-08T08:05:10.210Z,20000
2019-02-08T08:06:11.191Z,16416
2019-02-08T08:07:12.550Z,14052
2019-02-08T08:08:13.691Z,16576
2019-02-08T08:09:13.402Z,17056
2019-02-08T08:10:14.662Z,16992
2019-02-08T08:11:15.175Z,15116
2019-02-08T08:12:15.331Z,13640
2019-02-08T08:13:16.791Z,12692
2019-02-08T08:14:18.048Z,12024
2019-02-08T08:15:17.613Z,16800
2019-02-08T08:16:19.314Z,26112
2019-02-08T08:17:20.988Z,36032
2019-02-08T08:18:21.702Z,27232
2019-02-08T08:19:22.398Z,13164
2019-02-08T08:20:23.407Z,8880
2019-02-08T08:21:24.678Z,14432
2019-02-08T08:22:25.379Z,25792
2019-02-08T08:23:26.081Z,36768
2019-02-08T08:24:27.974Z,49472
2019-02-08T08:25:39.845Z,53152
2019-02-08T08:26:40.702Z,59168
2019-02-08T08:27:41.630Z,63648
2019-02-08T08:28:43.333Z,65536
2019-02-08T08:29:49.346Z,59552
2019-02-08T08:30:00.999Z,57888
2019-02-08T08:30:12.487Z,57568
2019-02-08T08:31:08.575Z,50048
2019-02-08T08:32:09.559Z,27744
2019-02-08T08:33:10.257Z,10124
2019-02-08T08:34:10.955Z,8756
2019-02-08T08:35:11.767Z,8648
2019-02-08T08:36:12.748Z,8688
2019-02-08T08:37:13.171Z,8692
2019-02-08T08:38:13.595Z,8688
2019-02-08T08:39:14.014Z,8668
2019-02-08T08:40:15.051Z,10112
2019-02-08T08:41:15.910Z,14880
2019-02-08T08:42:16.401Z,19328
2019-02-08T08:43:17.118Z,16736
2019-02-08T08:44:18.111Z,15776
2019-02-08T08:45:18.253Z,19616
2019-02-08T08:46:19.347Z,19936
2019-02-08T08:47:21.021Z,30304
2019-02-08T08:48:21.932Z,42176
2019-02-08T08:49:22.359Z,55488
2019-02-08T08:50:22.788Z,46592
2019-02-08T08:51:24.065Z,33504
2019-02-08T08:52:24.770Z,33824
2019-02-08T08:53:25.201Z,28128
2019-02-08T08:54:26.905Z,24448
2019-02-08T08:55:27.738Z,25376
2019-02-08T08:56:28.855Z,38624
2019-02-08T08:57:29.569Z,30752
2019-02-08T08:58:29.987Z,18464
2019-02-08T08:59:31.140Z,24640
2019-02-08T09:00:33.297Z,29600
2019-02-08T09:01:39.143Z,28192
2019-02-08T09:01:45.943Z,28000
2019-02-08T09:02:52.054Z,18624
2019-02-08T09:03:04.385Z,16420
2019-02-08T09:03:16.069Z,14936
2019-02-08T09:03:23.724Z,13716
2019-02-08T09:04:25.270Z,9168
2019-02-08T09:05:26.359Z,8956
2019-02-08T09:06:26.788Z,9008
2019-02-08T09:07:26.736Z,9056
2019-02-08T09:08:27.165Z,9008
2019-02-08T09:09:27.870Z,9228
2019-02-08T09:10:31.123Z,9492
2019-02-08T09:11:30.496Z,9508
2019-02-08T09:12:30.915Z,9552
2019-02-08T09:13:31.889Z,12680
2019-02-08T09:14:31.668Z,19552
2019-02-08T09:15:33.084Z,19424
2019-02-08T09:16:34.415Z,21344
2019-02-08T09:17:40.404Z,19328
2019-02-08T09:17:51.632Z,18784
2019-02-08T09:18:04.452Z,17152
2019-02-08T09:18:16.647Z,15668
2019-02-08T09:18:25.938Z,15192
2019-02-08T09:19:25.483Z,15128
2019-02-08T09:20:26.473Z,16072
2019-02-08T09:21:26.895Z,23840
2019-02-08T09:22:27.315Z,31680
2019-02-08T09:23:28.013Z,30944
2019-02-08T09:24:28.481Z,34048
2019-02-08T09:25:29.452Z,28928
2019-02-08T09:26:29.878Z,26528
2019-02-08T09:27:30.848Z,33664
2019-02-08T09:28:30.832Z,29504
2019-02-08T09:29:32.308Z,23968
2019-02-08T09:30:32.882Z,18752
2019-02-08T09:31:33.319Z,23712
2019-02-08T09:32:35.020Z,37920
2019-02-08T09:33:35.750Z,44640
2019-02-08T09:34:36.726Z,60128
2019-02-08T09:35:37.444Z,77280
2019-02-08T09:36:37.864Z,55360
2019-02-08T09:37:39.657Z,20736
2019-02-08T09:38:41.073Z,11772
2019-02-08T09:39:41.731Z,26208
2019-02-08T09:40:41.880Z,55808
2019-02-08T09:41:42.614Z,73728
2019-02-08T09:42:43.314Z,72864
2019-02-08T09:43:43.523Z,71520
2019-02-08T09:44:43.945Z,56064
2019-02-08T09:45:44.366Z,35264
2019-02-08T09:46:50.723Z,24096
2019-02-08T09:46:57.587Z,24224
2019-02-08T09:47:59.663Z,37984
2019-02-08T09:49:00.114Z,43648
2019-02-08T09:50:00.891Z,46656
2019-02-08T09:51:06.086Z,44480
2019-02-08T09:51:15.070Z,40448
2019-02-08T09:52:14.577Z,28480
2019-02-08T09:53:15.029Z,51648
2019-02-08T09:54:15.467Z,82848
2019-02-08T09:55:16.611Z,78720
2019-02-08T09:56:17.597Z,78272
2019-02-08T09:57:18.303Z,84096
2019-02-08T09:58:19.315Z,80736
2019-02-08T09:59:18.879Z,70464
2019-02-08T10:00:20.026Z,59232
2019-02-08T10:01:20.738Z,50080
2019-02-08T10:02:21.715Z,46240
2019-02-08T10:03:22.728Z,53056
2019-02-08T10:04:23.434Z,68448
2019-02-08T10:05:24.276Z,76928
2019-02-08T10:06:26.884Z,69600
2019-02-08T10:07:30.534Z,67040
2019-02-08T10:08:27.047Z,64896
2019-02-08T10:09:29.980Z,53216
2019-02-08T10:10:29.295Z,46496
2019-02-08T10:11:36.432Z,42944
2019-02-08T10:11:42.855Z,42848
2019-02-08T10:12:46.800Z,51328
2019-02-08T10:13:44.539Z,58624
2019-02-08T10:14:45.520Z,63328
2019-02-08T10:15:46.223Z,64736
2019-02-08T10:16:46.928Z,62176
2019-02-08T10:17:48.679Z,65280
2019-02-08T10:18:53.817Z,61568
2019-02-08T10:19:04.091Z,60640
2019-02-08T10:20:02.488Z,60096
2019-02-08T10:21:02.657Z,69920
2019-02-08T10:22:04.833Z,76992
2019-02-08T10:23:04.623Z,79424
2019-02-08T10:24:05.055Z,66176
2019-02-08T10:25:06.358Z,68544
2019-02-08T10:26:07.370Z,77152
2019-02-08T10:27:08.074Z,77472
2019-02-08T10:28:08.781Z,81984
2019-02-08T10:29:08.932Z,82272
2019-02-08T10:30:10.362Z,87680
2019-02-08T10:31:11.625Z,85600
2019-02-08T10:32:11.934Z,85376
2019-02-08T10:33:12.642Z,84192
2019-02-08T10:34:13.496Z,84992
2019-02-08T10:35:14.480Z,81472
2019-02-08T10:36:14.633Z,80576
2019-02-08T10:37:15.708Z,78944
2019-02-08T10:38:15.861Z,82880
2019-02-08T10:39:17.324Z,85952
2019-02-08T10:40:18.514Z,84224
2019-02-08T10:41:19.498Z,79808
2019-02-08T10:42:20.498Z,81664
2019-02-08T10:43:20.923Z,83392
2019-02-08T10:44:24.834Z,87296
2019-02-08T10:45:23.932Z,85024
2019-02-08T10:46:25.071Z,84384
2019-02-08T10:47:26.246Z,83392
2019-02-08T10:48:26.950Z,82144
2019-02-08T10:49:29.344Z,81568
2019-02-08T10:50:28.970Z,78656
2019-02-08T10:51:29.468Z,77280
2019-02-08T10:52:30.620Z,81184
2019-02-08T10:53:31.774Z,79648
2019-02-08T10:54:34.704Z,79008
2019-02-08T10:55:35.784Z,78560
2019-02-08T10:56:39.195Z,74592
2019-02-08T10:57:35.858Z,70624
2019-02-08T10:58:36.285Z,72736
2019-02-08T10:59:36.438Z,66912
2019-02-08T11:00:38.156Z,69984
2019-02-08T11:01:43.882Z,71488
2019-02-08T11:01:51.180Z,70048
2019-02-08T11:02:52.026Z,68864
2019-02-08T11:03:53.326Z,68064
2019-02-08T11:04:54.027Z,66240
2019-02-08T11:05:55.826Z,63200
2019-02-08T11:06:56.076Z,66240
2019-02-08T11:07:56.123Z,69280
2019-02-08T11:08:56.593Z,68256
2019-02-08T11:09:58.299Z,68864
2019-02-08T11:10:58.862Z,70240
2019-02-08T11:11:59.639Z,68576
2019-02-08T11:12:59.958Z,68192
2019-02-08T11:14:00.400Z,67232
2019-02-08T11:15:01.461Z,66944
2019-02-08T11:16:04.339Z,67168
2019-02-08T11:17:02.725Z,66080
2019-02-08T11:18:03.346Z,61216
2019-02-08T11:19:04.371Z,66400
2019-02-08T11:20:04.797Z,68832
2019-02-08T11:21:05.198Z,69088
2019-02-08T11:22:06.191Z,67808
2019-02-08T11:23:07.706Z,65728
2019-02-08T11:24:08.136Z,61120
2019-02-08T11:25:08.927Z,59424
2019-02-08T11:26:09.933Z,58368
2019-02-08T11:27:10.400Z,57408
2019-02-08T11:28:12.656Z,58528
2019-02-08T11:29:12.993Z,56256
2019-02-08T11:30:13.972Z,54560
2019-02-08T11:31:14.536Z,53888
2019-02-08T11:32:15.805Z,40768
2019-02-08T11:33:15.810Z,38368
2019-02-08T11:34:16.294Z,51968
2019-02-08T11:35:17.158Z,54176
2019-02-08T11:36:18.173Z,50048
2019-02-08T11:37:18.598Z,48096
2019-02-08T11:38:20.054Z,38432
2019-02-08T11:39:20.799Z,26144
2019-02-08T11:40:21.510Z,22720
2019-02-08T11:41:23.047Z,25248
2019-02-08T11:42:23.754Z,40128
2019-02-08T11:43:24.195Z,51840
2019-02-08T11:44:24.740Z,55296
2019-02-08T11:45:24.795Z,45920
2019-02-08T11:46:24.949Z,35328
2019-02-08T11:47:25.653Z,47104
2019-02-08T11:48:26.674Z,48160
2019-02-08T11:49:26.420Z,33696
2019-02-08T11:50:26.861Z,21536
2019-02-08T11:51:27.367Z,26464
2019-02-08T11:52:28.148Z,31264
2019-02-08T11:53:29.289Z,26304
2019-02-08T11:54:29.424Z,33248
2019-02-08T11:55:32.307Z,33600
2019-02-08T11:56:36.259Z,25920
2019-02-08T11:56:47.528Z,27168
2019-02-08T11:57:44.518Z,34080
2019-02-08T11:58:45.542Z,26176
2019-02-08T11:59:46.560Z,25600
2019-02-08T12:00:47.266Z,32576
2019-02-08T12:01:47.690Z,35616
2019-02-08T12:02:47.868Z,40928
2019-02-08T12:03:49.616Z,43392
2019-02-08T12:04:50.616Z,43488
2019-02-08T12:05:51.067Z,42304
2019-02-08T12:06:51.532Z,45504
2019-02-08T12:07:52.888Z,48480
2019-02-08T12:08:53.316Z,47904
2019-02-08T12:09:54.046Z,44288
2019-02-08T12:10:54.802Z,43968
2019-02-08T12:11:55.784Z,42688
2019-02-08T12:12:56.502Z,42528
2019-02-08T12:13:56.936Z,34464
2019-02-08T12:14:57.918Z,32480
2019-02-08T12:15:58.348Z,38528
2019-02-08T12:17:00.829Z,40256
2019-02-08T12:18:05.387Z,39552
2019-02-08T12:18:11.510Z,38688
2019-02-08T12:19:12.378Z,35776
2019-02-08T12:20:14.088Z,40768
2019-02-08T12:21:14.795Z,42208
2019-02-08T12:22:15.224Z,36992
2019-02-08T12:23:15.802Z,37344
2019-02-08T12:24:21.866Z,36672
2019-02-08T12:24:30.342Z,36416
2019-02-08T12:25:31.180Z,34848
2019-02-08T12:26:44.278Z,28864
2019-02-08T12:27:44.698Z,30752
2019-02-08T12:28:46.349Z,32544
2019-02-08T12:29:47.070Z,29888
2019-02-08T12:30:48.071Z,29216
2019-02-08T12:31:48.777Z,33056
2019-02-08T12:32:49.206Z,34144
2019-02-08T12:33:49.634Z,30592
2019-02-08T12:34:55.679Z,33920
2019-02-08T12:35:07.424Z,34752
2019-02-08T12:36:04.268Z,39488
2019-02-08T12:37:04.699Z,34656
2019-02-08T12:38:05.422Z,29632
2019-02-08T12:39:06.435Z,31200
2019-02-08T12:40:07.424Z,33696
2019-02-08T12:41:25.539Z,31968
2019-02-08T12:42:25.561Z,28448
2019-02-08T12:43:24.912Z,26816
2019-02-08T12:44:27.665Z,27264
2019-02-08T12:45:32.302Z,24864
2019-02-08T12:45:42.108Z,24864
2019-02-08T12:46:46.097Z,27392
2019-02-08T12:46:59.169Z,27552
2019-02-08T12:47:10.463Z,27584
2019-02-08T12:48:07.952Z,26720
2019-02-08T12:49:08.413Z,24288
2019-02-08T12:50:09.605Z,23328
2019-02-08T12:51:09.764Z,21152
2019-02-08T12:52:10.469Z,21568
2019-02-08T12:53:10.930Z,25632
2019-02-08T12:54:11.918Z,27104
2019-02-08T12:55:12.504Z,24064
2019-02-08T12:56:13.576Z,24960
2019-02-08T12:57:14.375Z,27584
2019-02-08T12:58:14.591Z,28896
2019-02-08T12:59:14.737Z,31456
2019-02-08T13:00:16.356Z,31648
2019-02-08T13:01:16.783Z,25792
2019-02-08T13:02:17.836Z,30688
2019-02-08T13:03:17.817Z,32192
2019-02-08T13:04:18.529Z,35552
2019-02-08T13:05:19.508Z,36192
2019-02-08T13:06:21.054Z,30880
2019-02-08T13:07:22.424Z,29376
2019-02-08T13:08:21.995Z,29824
2019-02-08T13:09:22.709Z,29792
2019-02-08T13:10:23.692Z,26528
2019-02-08T13:11:24.129Z,30208
2019-02-08T13:12:24.558Z,32480
2019-02-08T13:13:26.002Z,33152
2019-02-08T13:14:27.106Z,30784
2019-02-08T13:15:28.770Z,27680
2019-02-08T13:16:28.739Z,18304
2019-02-08T13:17:29.243Z,25120
2019-02-08T13:18:31.037Z,24032
2019-02-08T13:19:31.263Z,22208
2019-02-08T13:20:32.095Z,22656
2019-02-08T13:21:32.543Z,24160
2019-02-08T13:22:33.566Z,23040
2019-02-08T13:23:38.015Z,21088
2019-02-08T13:24:37.299Z,20128
2019-02-08T13:25:38.037Z,19840
2019-02-08T13:26:39.075Z,19360
2019-02-08T13:27:39.500Z,20768
2019-02-08T13:28:39.791Z,21248
2019-02-08T13:29:40.845Z,21248
2019-02-08T13:30:41.933Z,21760
2019-02-08T13:31:42.639Z,21600
2019-02-08T13:32:43.363Z,21664
2019-02-08T13:33:44.343Z,21632
2019-02-08T13:34:45.605Z,20000
2019-02-08T13:35:50.217Z,18976
2019-02-08T13:36:51.817Z,19616
2019-02-08T13:37:01.868Z,19488
2019-02-08T13:37:59.481Z,19584